sensor_id;sensor_type;location;lat;lon;timestamp;temperature;humidity
30206;DHT22;17010;51.306;3.150;2023-11-21T00:02:08;11.00;99.90
30206;DHT22;17010;51.306;3.150;2023-11-21T00:04:34;11.00;99.90
30206;DHT22;17010;51.306;3.150;2023-11-21T00:07:01;11.00;99.90
30206;DHT22;17010;51.306;3.150;2023-11-21T00:09:27;11.00;99.90
30206;DHT22;17010;51.306;3.150;2023-11-21T00:11:53;11.10;99.90
30206;DHT22;17010;51.306;3.150;2023-11-21T00:14:19;11.10;99.90
30206;DHT22;17010;51.306;3.150;2023-11-21T00:16:46;11.10;99.90
30206;DHT22;17010;51.306;3.150;2023-11-21T00:19:12;11.10;99.90
30206;DHT22;17010;51.306;3.150;2023-11-21T00:21:38;11.10;99.90
30206;DHT22;17010;51.306;3.150;2023-11-21T00:24:04;11.00;99.90
30206;DHT22;17010;51.306;3.150;2023-11-21T00:26:31;11.00;99.90
30206;DHT22;17010;51.306;3.150;2023-11-21T00:29:02;11.00;99.90
30206;DHT22;17010;51.306;3.150;2023-11-21T00:31:29;11.10;99.90
30206;DHT22;17010;51.306;3.150;2023-11-21T00:33:56;11.10;99.90
30206;DHT22;17010;51.306;3.150;2023-11-21T00:36:22;11.10;99.90
30206;DHT22;17010;51.306;3.150;2023-11-21T00:38:48;11.10;99.90
30206;DHT22;17010;51.306;3.150;2023-11-21T00:41:15;11.10;99.90
30206;DHT22;17010;51.306;3.150;2023-11-21T00:43:41;11.10;99.90
30206;DHT22;17010;51.306;3.150;2023-11-21T00:46:07;11.00;99.90
30206;DHT22;17010;51.306;3.150;2023-11-21T00:48:34;11.10;99.90
30206;DHT22;17010;51.306;3.150;2023-11-21T00:51:00;11.00;99.90
30206;DHT22;17010;51.306;3.150;2023-11-21T00:53:26;10.90;99.90
30206;DHT22;17010;51.306;3.150;2023-11-21T00:55:53;10.90;99.90
30206;DHT22;17010;51.306;3.150;2023-11-21T00:58:24;10.90;99.90
30206;DHT22;17010;51.306;3.150;2023-11-21T01:00:50;10.80;99.90
30206;DHT22;17010;51.306;3.150;2023-11-21T01:03:16;10.80;99.90
30206;DHT22;17010;51.306;3.150;2023-11-21T01:05:43;10.80;99.90
30206;DHT22;17010;51.306;3.150;2023-11-21T01:08:09;10.80;99.90
30206;DHT22;17010;51.306;3.150;2023-11-21T01:10:36;10.80;99.90
30206;DHT22;17010;51.306;3.150;2023-11-21T01:13:03;10.80;99.90
30206;DHT22;17010;51.306;3.150;2023-11-21T01:15:31;10.80;99.90
30206;DHT22;17010;51.306;3.150;2023-11-21T01:17:57;10.80;99.90
30206;DHT22;17010;51.306;3.150;2023-11-21T01:20:23;10.90;99.90
30206;DHT22;17010;51.306;3.150;2023-11-21T01:22:50;10.90;99.90
30206;DHT22;17010;51.306;3.150;2023-11-21T01:25:17;10.90;99.90
30206;DHT22;17010;51.306;3.150;2023-11-21T01:27:43;10.90;99.90
30206;DHT22;17010;51.306;3.150;2023-11-21T01:30:09;10.90;99.90
30206;DHT22;17010;51.306;3.150;2023-11-21T01:32:39;11.00;99.90
30206;DHT22;17010;51.306;3.150;2023-11-21T01:35:06;11.00;99.90
30206;DHT22;17010;51.306;3.150;2023-11-21T01:37:33;11.00;99.90
30206;DHT22;17010;51.306;3.150;2023-11-21T01:39:59;11.00;99.90
30206;DHT22;17010;51.306;3.150;2023-11-21T01:42:27;11.00;99.90
30206;DHT22;17010;51.306;3.150;2023-11-21T01:44:55;11.00;99.90
30206;DHT22;17010;51.306;3.150;2023-11-21T01:47:21;11.00;99.90
30206;DHT22;17010;51.306;3.150;2023-11-21T01:49:47;11.00;99.90
30206;DHT22;17010;51.306;3.150;2023-11-21T01:52:14;11.00;99.90
30206;DHT22;17010;51.306;3.150;2023-11-21T01:54:41;11.10;99.90
30206;DHT22;17010;51.306;3.150;2023-11-21T01:57:08;11.00;99.90
30206;DHT22;17010;51.306;3.150;2023-11-21T01:59:36;11.00;99.90
30206;DHT22;17010;51.306;3.150;2023-11-21T02:02:04;11.00;99.90
30206;DHT22;17010;51.306;3.150;2023-11-21T02:04:34;11.00;99.90
30206;DHT22;17010;51.306;3.150;2023-11-21T02:07:00;11.00;99.90
30206;DHT22;17010;51.306;3.150;2023-11-21T02:09:27;11.00;99.90
30206;DHT22;17010;51.306;3.150;2023-11-21T02:11:53;11.00;99.90
30206;DHT22;17010;51.306;3.150;2023-11-21T02:14:20;11.00;99.90
30206;DHT22;17010;51.306;3.150;2023-11-21T02:16:50;11.00;99.90
30206;DHT22;17010;51.306;3.150;2023-11-21T02:19:21;11.00;99.90
30206;DHT22;17010;51.306;3.150;2023-11-21T02:21:59;11.00;99.90
30206;DHT22;17010;51.306;3.150;2023-11-21T02:24:26;11.10;99.90
30206;DHT22;17010;51.306;3.150;2023-11-21T02:26:53;11.10;99.90
30206;DHT22;17010;51.306;3.150;2023-11-21T02:29:20;11.10;99.90
30206;DHT22;17010;51.306;3.150;2023-11-21T02:31:54;11.10;99.90
30206;DHT22;17010;51.306;3.150;2023-11-21T02:34:30;11.20;99.90
30206;DHT22;17010;51.306;3.150;2023-11-21T02:37:20;11.30;99.90
30206;DHT22;17010;51.306;3.150;2023-11-21T02:39:51;11.00;99.90
30206;DHT22;17010;51.306;3.150;2023-11-21T02:42:42;11.20;99.90
30206;DHT22;17010;51.306;3.150;2023-11-21T02:45:33;10.90;99.90
30206;DHT22;17010;51.306;3.150;2023-11-21T02:49:06;11.30;99.90
30206;DHT22;17010;51.306;3.150;2023-11-21T02:52:31;11.20;99.90
30206;DHT22;17010;51.306;3.150;2023-11-21T03:14:11;11.10;99.90
30206;DHT22;17010;51.306;3.150;2023-11-21T03:16:53;11.10;99.90
30206;DHT22;17010;51.306;3.150;2023-11-21T03:19:28;11.10;99.90
30206;DHT22;17010;51.306;3.150;2023-11-21T03:21:59;11.00;99.90
30206;DHT22;17010;51.306;3.150;2023-11-21T03:24:26;11.00;99.90
30206;DHT22;17010;51.306;3.150;2023-11-21T03:26:53;11.10;99.90
30206;DHT22;17010;51.306;3.150;2023-11-21T03:29:19;11.10;99.90
30206;DHT22;17010;51.306;3.150;2023-11-21T03:31:48;11.10;99.90
30206;DHT22;17010;51.306;3.150;2023-11-21T03:34:23;11.10;99.90
30206;DHT22;17010;51.306;3.150;2023-11-21T03:36:50;11.10;99.90
30206;DHT22;17010;51.306;3.150;2023-11-21T03:39:16;11.00;99.90
30206;DHT22;17010;51.306;3.150;2023-11-21T03:41:43;11.10;99.90
30206;DHT22;17010;51.306;3.150;2023-11-21T03:44:09;11.10;99.90
30206;DHT22;17010;51.306;3.150;2023-11-21T03:46:36;10.50;99.90
30206;DHT22;17010;51.306;3.150;2023-11-21T03:49:03;11.00;99.90
30206;DHT22;17010;51.306;3.150;2023-11-21T03:51:29;11.00;99.90
30206;DHT22;17010;51.306;3.150;2023-11-21T03:53:55;11.00;99.90
30206;DHT22;17010;51.306;3.150;2023-11-21T03:56:21;11.00;99.90
30206;DHT22;17010;51.306;3.150;2023-11-21T03:58:48;11.00;99.90
30206;DHT22;17010;51.306;3.150;2023-11-21T04:01:21;11.00;99.90
30206;DHT22;17010;51.306;3.150;2023-11-21T04:03:49;10.90;99.90
30206;DHT22;17010;51.306;3.150;2023-11-21T04:06:17;10.90;99.90
30206;DHT22;17010;51.306;3.150;2023-11-21T04:08:44;10.90;99.90
30206;DHT22;17010;51.306;3.150;2023-11-21T04:11:11;10.80;99.90
30206;DHT22;17010;51.306;3.150;2023-11-21T04:13:40;10.80;99.90
30206;DHT22;17010;51.306;3.150;2023-11-21T04:16:08;10.70;99.90
30206;DHT22;17010;51.306;3.150;2023-11-21T04:18:36;10.80;99.90
30206;DHT22;17010;51.306;3.150;2023-11-21T04:21:02;10.80;99.90
30206;DHT22;17010;51.306;3.150;2023-11-21T04:23:29;10.80;99.90
30206;DHT22;17010;51.306;3.150;2023-11-21T04:26:00;10.80;99.90
30206;DHT22;17010;51.306;3.150;2023-11-21T04:28:28;10.80;99.90
30206;DHT22;17010;51.306;3.150;2023-11-21T04:30:54;10.80;99.90
30206;DHT22;17010;51.306;3.150;2023-11-21T04:33:21;10.80;99.90
30206;DHT22;17010;51.306;3.150;2023-11-21T04:35:48;10.80;99.90
30206;DHT22;17010;51.306;3.150;2023-11-21T04:38:14;10.80;99.90
30206;DHT22;17010;51.306;3.150;2023-11-21T04:40:40;10.80;99.90
30206;DHT22;17010;51.306;3.150;2023-11-21T04:43:06;10.70;99.90
30206;DHT22;17010;51.306;3.150;2023-11-21T04:45:33;10.80;99.90
30206;DHT22;17010;51.306;3.150;2023-11-21T04:47:59;10.80;99.90
30206;DHT22;17010;51.306;3.150;2023-11-21T04:50:25;10.80;99.90
30206;DHT22;17010;51.306;3.150;2023-11-21T04:52:53;10.80;99.90
30206;DHT22;17010;51.306;3.150;2023-11-21T04:55:19;10.80;99.90
30206;DHT22;17010;51.306;3.150;2023-11-21T04:57:45;10.80;99.90
30206;DHT22;17010;51.306;3.150;2023-11-21T05:00:13;10.70;99.90
30206;DHT22;17010;51.306;3.150;2023-11-21T05:02:42;10.70;99.90
30206;DHT22;17010;51.306;3.150;2023-11-21T05:05:10;10.70;99.90
30206;DHT22;17010;51.306;3.150;2023-11-21T05:07:36;10.70;99.90
30206;DHT22;17010;51.306;3.150;2023-11-21T05:10:06;10.70;99.90
30206;DHT22;17010;51.306;3.150;2023-11-21T05:12:41;10.70;99.90
30206;DHT22;17010;51.306;3.150;2023-11-21T05:15:08;10.80;99.90
30206;DHT22;17010;51.306;3.150;2023-11-21T05:17:38;10.80;99.90
30206;DHT22;17010;51.306;3.150;2023-11-21T05:20:09;10.80;99.90
30206;DHT22;17010;51.306;3.150;2023-11-21T05:22:36;10.80;99.90
30206;DHT22;17010;51.306;3.150;2023-11-21T05:25:03;10.80;99.90
30206;DHT22;17010;51.306;3.150;2023-11-21T05:27:30;10.80;99.90
30206;DHT22;17010;51.306;3.150;2023-11-21T05:30:00;10.80;99.90
30206;DHT22;17010;51.306;3.150;2023-11-21T05:32:26;10.80;99.90
30206;DHT22;17010;51.306;3.150;2023-11-21T05:34:52;10.80;99.90
30206;DHT22;17010;51.306;3.150;2023-11-21T05:37:18;10.90;99.90
30206;DHT22;17010;51.306;3.150;2023-11-21T05:39:45;10.90;99.90
30206;DHT22;17010;51.306;3.150;2023-11-21T05:42:11;10.90;99.90
30206;DHT22;17010;51.306;3.150;2023-11-21T05:44:38;11.00;99.90
30206;DHT22;17010;51.306;3.150;2023-11-21T05:47:07;11.00;99.90
30206;DHT22;17010;51.306;3.150;2023-11-21T05:49:34;11.00;99.90
30206;DHT22;17010;51.306;3.150;2023-11-21T05:52:01;11.00;99.90
30206;DHT22;17010;51.306;3.150;2023-11-21T05:54:27;11.00;99.90
30206;DHT22;17010;51.306;3.150;2023-11-21T05:56:53;11.00;99.90
30206;DHT22;17010;51.306;3.150;2023-11-21T05:59:19;10.90;99.90
30206;DHT22;17010;51.306;3.150;2023-11-21T06:01:46;10.80;99.90
30206;DHT22;17010;51.306;3.150;2023-11-21T06:04:13;10.80;99.90
30206;DHT22;17010;51.306;3.150;2023-11-21T06:06:39;10.80;99.90
30206;DHT22;17010;51.306;3.150;2023-11-21T06:09:05;10.70;99.90
30206;DHT22;17010;51.306;3.150;2023-11-21T06:11:34;10.80;99.90
30206;DHT22;17010;51.306;3.150;2023-11-21T06:14:02;10.80;99.90
30206;DHT22;17010;51.306;3.150;2023-11-21T06:16:28;10.80;99.90
30206;DHT22;17010;51.306;3.150;2023-11-21T06:18:55;10.80;99.90
30206;DHT22;17010;51.306;3.150;2023-11-21T06:21:21;10.80;99.90
30206;DHT22;17010;51.306;3.150;2023-11-21T06:23:47;10.80;99.90
30206;DHT22;17010;51.306;3.150;2023-11-21T06:26:14;10.80;99.90
30206;DHT22;17010;51.306;3.150;2023-11-21T06:28:40;10.80;99.90
30206;DHT22;17010;51.306;3.150;2023-11-21T06:31:07;10.70;99.90
30206;DHT22;17010;51.306;3.150;2023-11-21T06:33:33;10.80;99.90
30206;DHT22;17010;51.306;3.150;2023-11-21T06:36:00;10.80;99.90
30206;DHT22;17010;51.306;3.150;2023-11-21T06:38:29;10.80;99.90
30206;DHT22;17010;51.306;3.150;2023-11-21T06:40:58;10.70;99.90
30206;DHT22;17010;51.306;3.150;2023-11-21T06:43:24;10.70;99.90
30206;DHT22;17010;51.306;3.150;2023-11-21T06:45:50;10.70;99.90
30206;DHT22;17010;51.306;3.150;2023-11-21T06:48:16;10.80;99.90
30206;DHT22;17010;51.306;3.150;2023-11-21T06:50:42;10.90;99.90
30206;DHT22;17010;51.306;3.150;2023-11-21T06:53:09;10.90;99.90
30206;DHT22;17010;51.306;3.150;2023-11-21T06:55:36;10.90;99.90
30206;DHT22;17010;51.306;3.150;2023-11-21T06:58:02;10.90;99.90
30206;DHT22;17010;51.306;3.150;2023-11-21T07:00:28;10.90;99.90
30206;DHT22;17010;51.306;3.150;2023-11-21T07:02:55;10.80;99.90
30206;DHT22;17010;51.306;3.150;2023-11-21T07:05:22;10.80;99.90
30206;DHT22;17010;51.306;3.150;2023-11-21T07:07:49;10.80;99.90
30206;DHT22;17010;51.306;3.150;2023-11-21T07:10:15;10.80;99.90
30206;DHT22;17010;51.306;3.150;2023-11-21T07:12:43;10.80;99.90
30206;DHT22;17010;51.306;3.150;2023-11-21T07:15:09;10.80;99.90
30206;DHT22;17010;51.306;3.150;2023-11-21T07:17:36;10.80;99.90
30206;DHT22;17010;51.306;3.150;2023-11-21T07:20:04;10.70;99.90
30206;DHT22;17010;51.306;3.150;2023-11-21T07:22:32;10.80;99.90
30206;DHT22;17010;51.306;3.150;2023-11-21T07:24:58;10.80;99.90
30206;DHT22;17010;51.306;3.150;2023-11-21T07:27:26;10.80;99.90
30206;DHT22;17010;51.306;3.150;2023-11-21T07:29:52;10.80;99.90
30206;DHT22;17010;51.306;3.150;2023-11-21T07:32:18;10.70;99.90
30206;DHT22;17010;51.306;3.150;2023-11-21T07:34:45;10.70;99.90
30206;DHT22;17010;51.306;3.150;2023-11-21T07:37:11;10.70;99.90
30206;DHT22;17010;51.306;3.150;2023-11-21T07:39:37;10.70;99.90
30206;DHT22;17010;51.306;3.150;2023-11-21T07:42:07;10.70;99.90
30206;DHT22;17010;51.306;3.150;2023-11-21T07:44:33;10.70;99.90
30206;DHT22;17010;51.306;3.150;2023-11-21T07:47:00;10.70;99.90
30206;DHT22;17010;51.306;3.150;2023-11-21T07:49:26;10.80;99.90
30206;DHT22;17010;51.306;3.150;2023-11-21T07:51:52;10.80;99.90
30206;DHT22;17010;51.306;3.150;2023-11-21T07:54:19;10.90;99.90
30206;DHT22;17010;51.306;3.150;2023-11-21T07:56:45;10.90;99.90
30206;DHT22;17010;51.306;3.150;2023-11-21T07:59:11;10.90;99.90
30206;DHT22;17010;51.306;3.150;2023-11-21T08:01:38;11.00;99.90
30206;DHT22;17010;51.306;3.150;2023-11-21T08:04:06;11.00;99.90
30206;DHT22;17010;51.306;3.150;2023-11-21T08:06:34;11.00;99.90
30206;DHT22;17010;51.306;3.150;2023-11-21T08:09:00;11.00;99.90
30206;DHT22;17010;51.306;3.150;2023-11-21T08:11:26;11.00;99.90
30206;DHT22;17010;51.306;3.150;2023-11-21T08:13:55;11.00;99.90
30206;DHT22;17010;51.306;3.150;2023-11-21T08:16:21;11.00;99.90
30206;DHT22;17010;51.306;3.150;2023-11-21T08:18:47;11.10;99.90
30206;DHT22;17010;51.306;3.150;2023-11-21T08:21:13;11.10;99.90
30206;DHT22;17010;51.306;3.150;2023-11-21T08:23:39;11.20;99.90
30206;DHT22;17010;51.306;3.150;2023-11-21T08:26:06;11.30;99.90
30206;DHT22;17010;51.306;3.150;2023-11-21T08:28:32;11.50;99.90
30206;DHT22;17010;51.306;3.150;2023-11-21T08:30:58;11.60;99.90
30206;DHT22;17010;51.306;3.150;2023-11-21T08:33:24;11.80;99.90
30206;DHT22;17010;51.306;3.150;2023-11-21T08:35:51;11.80;99.90
30206;DHT22;17010;51.306;3.150;2023-11-21T08:38:17;11.80;99.90
30206;DHT22;17010;51.306;3.150;2023-11-21T08:40:43;11.80;99.90
30206;DHT22;17010;51.306;3.150;2023-11-21T08:43:10;11.70;99.90
30206;DHT22;17010;51.306;3.150;2023-11-21T08:45:37;11.60;99.90
30206;DHT22;17010;51.306;3.150;2023-11-21T08:48:04;11.50;99.90
30206;DHT22;17010;51.306;3.150;2023-11-21T08:50:31;11.30;99.90
30206;DHT22;17010;51.306;3.150;2023-11-21T08:52:59;11.30;99.90
30206;DHT22;17010;51.306;3.150;2023-11-21T08:55:25;11.20;99.90
30206;DHT22;17010;51.306;3.150;2023-11-21T08:57:51;11.30;99.90
30206;DHT22;17010;51.306;3.150;2023-11-21T09:00:17;11.30;99.90
30206;DHT22;17010;51.306;3.150;2023-11-21T09:02:44;11.30;99.90
30206;DHT22;17010;51.306;3.150;2023-11-21T09:05:12;11.40;99.90
30206;DHT22;17010;51.306;3.150;2023-11-21T09:07:40;11.40;99.90
30206;DHT22;17010;51.306;3.150;2023-11-21T09:10:07;11.50;99.90
30206;DHT22;17010;51.306;3.150;2023-11-21T09:12:36;11.60;99.90
30206;DHT22;17010;51.306;3.150;2023-11-21T09:15:04;11.60;99.90
30206;DHT22;17010;51.306;3.150;2023-11-21T09:17:35;11.70;99.90
30206;DHT22;17010;51.306;3.150;2023-11-21T09:20:02;11.70;99.90
30206;DHT22;17010;51.306;3.150;2023-11-21T09:22:31;11.70;99.90
30206;DHT22;17010;51.306;3.150;2023-11-21T09:24:58;11.60;99.90
30206;DHT22;17010;51.306;3.150;2023-11-21T09:27:24;11.60;99.90
30206;DHT22;17010;51.306;3.150;2023-11-21T09:29:52;11.60;99.90
30206;DHT22;17010;51.306;3.150;2023-11-21T09:32:20;11.60;99.90
30206;DHT22;17010;51.306;3.150;2023-11-21T09:34:48;11.60;99.90
30206;DHT22;17010;51.306;3.150;2023-11-21T09:37:15;11.50;99.90
30206;DHT22;17010;51.306;3.150;2023-11-21T09:39:41;11.50;99.90
30206;DHT22;17010;51.306;3.150;2023-11-21T09:42:12;11.50;99.90
30206;DHT22;17010;51.306;3.150;2023-11-21T09:47:27;11.50;99.90
30206;DHT22;17010;51.306;3.150;2023-11-21T09:49:56;11.60;99.90
30206;DHT22;17010;51.306;3.150;2023-11-21T09:52:25;11.60;99.90
30206;DHT22;17010;51.306;3.150;2023-11-21T09:54:53;11.70;99.90
30206;DHT22;17010;51.306;3.150;2023-11-21T09:57:20;11.80;99.90
30206;DHT22;17010;51.306;3.150;2023-11-21T09:59:53;11.70;99.90
30206;DHT22;17010;51.306;3.150;2023-11-21T10:02:28;11.70;99.90
30206;DHT22;17010;51.306;3.150;2023-11-21T10:04:56;11.80;99.90
30206;DHT22;17010;51.306;3.150;2023-11-21T10:07:23;11.70;99.90
30206;DHT22;17010;51.306;3.150;2023-11-21T10:09:49;11.70;99.90
30206;DHT22;17010;51.306;3.150;2023-11-21T10:12:17;11.70;99.90
30206;DHT22;17010;51.306;3.150;2023-11-21T10:14:47;11.80;99.90
30206;DHT22;17010;51.306;3.150;2023-11-21T10:17:14;11.80;99.90
30206;DHT22;17010;51.306;3.150;2023-11-21T10:19:42;11.90;99.90
30206;DHT22;17010;51.306;3.150;2023-11-21T10:22:09;11.90;99.90
30206;DHT22;17010;51.306;3.150;2023-11-21T10:24:35;12.00;99.90
30206;DHT22;17010;51.306;3.150;2023-11-21T10:27:04;12.00;99.90
30206;DHT22;17010;51.306;3.150;2023-11-21T10:29:30;12.00;99.90
30206;DHT22;17010;51.306;3.150;2023-11-21T10:31:56;12.00;99.90
30206;DHT22;17010;51.306;3.150;2023-11-21T10:34:24;12.10;99.90
30206;DHT22;17010;51.306;3.150;2023-11-21T10:36:53;12.20;99.90
30206;DHT22;17010;51.306;3.150;2023-11-21T10:39:20;12.20;99.90
30206;DHT22;17010;51.306;3.150;2023-11-21T10:41:49;12.10;99.90
30206;DHT22;17010;51.306;3.150;2023-11-21T10:44:17;12.00;99.90
30206;DHT22;17010;51.306;3.150;2023-11-21T10:46:49;12.10;99.90
30206;DHT22;17010;51.306;3.150;2023-11-21T10:49:25;12.10;99.90
30206;DHT22;17010;51.306;3.150;2023-11-21T10:51:53;12.10;99.90
30206;DHT22;17010;51.306;3.150;2023-11-21T10:54:20;12.10;99.90
30206;DHT22;17010;51.306;3.150;2023-11-21T10:56:48;12.10;99.90
30206;DHT22;17010;51.306;3.150;2023-11-21T10:59:17;12.10;99.90
30206;DHT22;17010;51.306;3.150;2023-11-21T11:02:06;12.20;99.90
30206;DHT22;17010;51.306;3.150;2023-11-21T11:04:35;12.30;99.90
30206;DHT22;17010;51.306;3.150;2023-11-21T11:07:04;12.30;99.90
30206;DHT22;17010;51.306;3.150;2023-11-21T11:09:32;12.30;99.90
30206;DHT22;17010;51.306;3.150;2023-11-21T11:12:02;12.30;99.90
30206;DHT22;17010;51.306;3.150;2023-11-21T11:14:30;12.30;99.90
30206;DHT22;17010;51.306;3.150;2023-11-21T11:16:58;12.40;99.90
30206;DHT22;17010;51.306;3.150;2023-11-21T11:19:26;12.40;99.90
30206;DHT22;17010;51.306;3.150;2023-11-21T11:22:00;12.40;99.90
30206;DHT22;17010;51.306;3.150;2023-11-21T11:24:44;12.30;99.90
30206;DHT22;17010;51.306;3.150;2023-11-21T11:35:13;12.10;99.90
30206;DHT22;17010;51.306;3.150;2023-11-21T11:37:43;12.20;99.90
30206;DHT22;17010;51.306;3.150;2023-11-21T11:40:11;12.30;99.90
30206;DHT22;17010;51.306;3.150;2023-11-21T11:42:37;12.40;99.90
30206;DHT22;17010;51.306;3.150;2023-11-21T11:45:17;12.50;99.90
30206;DHT22;17010;51.306;3.150;2023-11-21T11:47:45;12.50;99.90
30206;DHT22;17010;51.306;3.150;2023-11-21T11:50:13;12.50;99.90
30206;DHT22;17010;51.306;3.150;2023-11-21T11:52:44;12.50;99.90
30206;DHT22;17010;51.306;3.150;2023-11-21T11:55:12;12.40;99.90
30206;DHT22;17010;51.306;3.150;2023-11-21T11:57:41;12.40;99.90
30206;DHT22;17010;51.306;3.150;2023-11-21T12:00:12;12.30;99.90
30206;DHT22;17010;51.306;3.150;2023-11-21T12:02:44;12.30;99.90
30206;DHT22;17010;51.306;3.150;2023-11-21T12:05:17;12.30;99.90
30206;DHT22;17010;51.306;3.150;2023-11-21T12:07:54;12.30;99.90
30206;DHT22;17010;51.306;3.150;2023-11-21T12:10:22;12.30;99.90
30206;DHT22;17010;51.306;3.150;2023-11-21T12:12:56;12.30;99.90
30206;DHT22;17010;51.306;3.150;2023-11-21T12:15:24;12.40;99.90
30206;DHT22;17010;51.306;3.150;2023-11-21T12:17:51;12.40;99.90
30206;DHT22;17010;51.306;3.150;2023-11-21T12:20:19;12.40;99.90
30206;DHT22;17010;51.306;3.150;2023-11-21T12:22:47;12.40;99.90
30206;DHT22;17010;51.306;3.150;2023-11-21T12:25:17;12.40;99.90
30206;DHT22;17010;51.306;3.150;2023-11-21T12:27:45;12.50;99.90
30206;DHT22;17010;51.306;3.150;2023-11-21T12:30:12;12.40;99.90
30206;DHT22;17010;51.306;3.150;2023-11-21T12:32:40;12.40;99.90
30206;DHT22;17010;51.306;3.150;2023-11-21T12:35:11;12.40;99.90
30206;DHT22;17010;51.306;3.150;2023-11-21T12:37:41;12.30;99.90
30206;DHT22;17010;51.306;3.150;2023-11-21T12:40:10;12.20;99.90
30206;DHT22;17010;51.306;3.150;2023-11-21T12:42:39;12.20;99.90
30206;DHT22;17010;51.306;3.150;2023-11-21T12:45:18;12.20;99.90
30206;DHT22;17010;51.306;3.150;2023-11-21T12:47:59;12.10;99.90
30206;DHT22;17010;51.306;3.150;2023-11-21T12:50:27;12.10;99.90
30206;DHT22;17010;51.306;3.150;2023-11-21T12:55:31;12.00;99.90
30206;DHT22;17010;51.306;3.150;2023-11-21T12:57:57;12.10;99.90
30206;DHT22;17010;51.306;3.150;2023-11-21T13:00:31;12.00;99.90
30206;DHT22;17010;51.306;3.150;2023-11-21T13:02:58;12.10;99.90
30206;DHT22;17010;51.306;3.150;2023-11-21T13:07:51;12.00;99.90
30206;DHT22;17010;51.306;3.150;2023-11-21T13:10:25;12.00;99.90
30206;DHT22;17010;51.306;3.150;2023-11-21T13:12:55;12.00;99.90
30206;DHT22;17010;51.306;3.150;2023-11-21T13:15:27;12.10;99.90
30206;DHT22;17010;51.306;3.150;2023-11-21T13:17:54;12.00;99.90
30206;DHT22;17010;51.306;3.150;2023-11-21T13:20:20;12.00;99.90
30206;DHT22;17010;51.306;3.150;2023-11-21T13:22:48;11.80;99.90
30206;DHT22;17010;51.306;3.150;2023-11-21T13:25:17;11.80;99.90
30206;DHT22;17010;51.306;3.150;2023-11-21T13:27:44;11.80;99.90
30206;DHT22;17010;51.306;3.150;2023-11-21T13:30:13;11.80;99.90
30206;DHT22;17010;51.306;3.150;2023-11-21T13:32:43;11.70;99.90
30206;DHT22;17010;51.306;3.150;2023-11-21T13:35:11;11.70;99.90
30206;DHT22;17010;51.306;3.150;2023-11-21T13:37:52;11.60;99.90
30206;DHT22;17010;51.306;3.150;2023-11-21T13:40:24;11.70;99.90
30206;DHT22;17010;51.306;3.150;2023-11-21T13:42:54;11.80;99.90
30206;DHT22;17010;51.306;3.150;2023-11-21T13:45:23;11.90;99.90
30206;DHT22;17010;51.306;3.150;2023-11-21T13:47:51;12.00;99.90
30206;DHT22;17010;51.306;3.150;2023-11-21T13:50:18;12.10;99.90
30206;DHT22;17010;51.306;3.150;2023-11-21T13:52:49;12.20;99.90
30206;DHT22;17010;51.306;3.150;2023-11-21T13:55:17;12.30;99.90
30206;DHT22;17010;51.306;3.150;2023-11-21T13:57:44;12.20;99.90
30206;DHT22;17010;51.306;3.150;2023-11-21T14:00:13;12.10;99.90
30206;DHT22;17010;51.306;3.150;2023-11-21T14:03:00;12.10;99.90
30206;DHT22;17010;51.306;3.150;2023-11-21T14:05:29;11.90;99.90
30206;DHT22;17010;51.306;3.150;2023-11-21T14:07:58;11.80;99.90
30206;DHT22;17010;51.306;3.150;2023-11-21T14:10:31;11.70;99.90
30206;DHT22;17010;51.306;3.150;2023-11-21T14:13:09;11.70;99.90
30206;DHT22;17010;51.306;3.150;2023-11-21T14:15:39;11.70;99.90
30206;DHT22;17010;51.306;3.150;2023-11-21T14:18:11;11.70;99.90
30206;DHT22;17010;51.306;3.150;2023-11-21T14:20:40;11.70;99.90
30206;DHT22;17010;51.306;3.150;2023-11-21T14:23:07;11.70;99.90
30206;DHT22;17010;51.306;3.150;2023-11-21T14:25:34;11.70;99.90
30206;DHT22;17010;51.306;3.150;2023-11-21T14:28:04;11.70;99.90
30206;DHT22;17010;51.306;3.150;2023-11-21T14:30:32;11.60;99.90
30206;DHT22;17010;51.306;3.150;2023-11-21T14:33:02;11.50;99.90
30206;DHT22;17010;51.306;3.150;2023-11-21T14:35:28;11.40;99.90
30206;DHT22;17010;51.306;3.150;2023-11-21T14:37:59;11.40;99.90
30206;DHT22;17010;51.306;3.150;2023-11-21T14:40:26;11.30;99.90
30206;DHT22;17010;51.306;3.150;2023-11-21T14:42:59;11.30;99.90
30206;DHT22;17010;51.306;3.150;2023-11-21T14:45:26;11.20;99.90
30206;DHT22;17010;51.306;3.150;2023-11-21T14:47:52;11.30;99.90
30206;DHT22;17010;51.306;3.150;2023-11-21T14:50:35;11.20;99.90
30206;DHT22;17010;51.306;3.150;2023-11-21T14:53:10;11.20;99.90
30206;DHT22;17010;51.306;3.150;2023-11-21T14:55:39;11.10;99.90
30206;DHT22;17010;51.306;3.150;2023-11-21T14:58:20;11.10;99.90
30206;DHT22;17010;51.306;3.150;2023-11-21T15:00:57;11.00;99.90
30206;DHT22;17010;51.306;3.150;2023-11-21T15:03:27;11.00;99.90
30206;DHT22;17010;51.306;3.150;2023-11-21T15:06:09;11.00;99.90
30206;DHT22;17010;51.306;3.150;2023-11-21T15:08:50;11.00;99.90
30206;DHT22;17010;51.306;3.150;2023-11-21T15:11:22;11.00;99.90
30206;DHT22;17010;51.306;3.150;2023-11-21T15:13:56;11.00;99.90
30206;DHT22;17010;51.306;3.150;2023-11-21T15:16:22;11.00;99.90
30206;DHT22;17010;51.306;3.150;2023-11-21T15:18:48;10.90;99.90
30206;DHT22;17010;51.306;3.150;2023-11-21T15:21:15;10.90;99.90
30206;DHT22;17010;51.306;3.150;2023-11-21T15:23:41;10.90;99.90
30206;DHT22;17010;51.306;3.150;2023-11-21T15:26:07;10.90;99.90
30206;DHT22;17010;51.306;3.150;2023-11-21T15:28:35;10.90;99.90
30206;DHT22;17010;51.306;3.150;2023-11-21T15:31:01;10.90;99.90
30206;DHT22;17010;51.306;3.150;2023-11-21T15:33:30;10.80;99.90
30206;DHT22;17010;51.306;3.150;2023-11-21T15:35:56;10.80;99.90
30206;DHT22;17010;51.306;3.150;2023-11-21T15:38:24;10.80;99.90
30206;DHT22;17010;51.306;3.150;2023-11-21T15:40:50;10.80;99.90
30206;DHT22;17010;51.306;3.150;2023-11-21T15:43:16;10.70;99.90
30206;DHT22;17010;51.306;3.150;2023-11-21T15:45:42;10.70;99.90
30206;DHT22;17010;51.306;3.150;2023-11-21T15:48:09;10.80;99.90
30206;DHT22;17010;51.306;3.150;2023-11-21T15:50:36;10.70;99.90
30206;DHT22;17010;51.306;3.150;2023-11-21T15:53:03;10.80;99.90
30206;DHT22;17010;51.306;3.150;2023-11-21T15:55:31;10.80;99.90
30206;DHT22;17010;51.306;3.150;2023-11-21T15:57:59;10.80;99.90
30206;DHT22;17010;51.306;3.150;2023-11-21T16:00:26;10.90;99.90
30206;DHT22;17010;51.306;3.150;2023-11-21T16:02:52;10.90;99.90
30206;DHT22;17010;51.306;3.150;2023-11-21T16:05:20;10.90;99.90
30206;DHT22;17010;51.306;3.150;2023-11-21T16:07:46;10.90;99.90
30206;DHT22;17010;51.306;3.150;2023-11-21T16:10:13;10.90;99.90
30206;DHT22;17010;51.306;3.150;2023-11-21T16:12:42;10.90;99.90
30206;DHT22;17010;51.306;3.150;2023-11-21T16:15:09;11.00;99.90